Time;durP1;ratioP1;P1;durP2;ratioP2;P2;SDS_P1;SDS_P2;PMS_P1;PMS_P2;Temp;Humidity;BMP_temperature;BMP_pressure;BME280_temperature;BME280_humidity;BME280_pressure;Samples;Min_cycle;Max_cycle;Signal;HPM_P1;HPM_P2
2022/07/24 00:01:32;;;;;;;5.00;2.45;;;15.30;99.90;;;;;;5015296;28;20060;-69
2022/07/24 00:03:58;;;;;;;4.47;2.67;;;15.30;99.90;;;;;;5014873;28;20479;-69
2022/07/24 00:06:23;;;;;;;5.00;2.22;;;15.40;99.90;;;;;;5015567;28;20056;-69
2022/07/24 00:08:49;;;;;;;6.32;2.50;;;15.30;99.90;;;;;;5015645;28;20081;-69
2022/07/24 00:11:15;;;;;;;6.72;2.65;;;15.30;99.90;;;;;;5015909;28;20445;-70
2022/07/24 00:13:41;;;;;;;4.20;2.15;;;15.30;99.90;;;;;;5015185;28;20141;-70
2022/07/24 00:16:07;;;;;;;5.90;2.50;;;15.30;99.90;;;;;;5015481;28;20124;-69
2022/07/24 00:18:32;;;;;;;4.47;2.20;;;15.30;99.90;;;;;;5015508;28;20050;-69
2022/07/24 00:20:58;;;;;;;6.93;2.55;;;15.30;99.90;;;;;;5015361;28;20112;-69
2022/07/24 00:23:24;;;;;;;3.10;2.00;;;15.30;99.90;;;;;;5015543;28;20046;-69
2022/07/24 00:25:50;;;;;;;6.80;2.10;;;15.30;99.90;;;;;;5015129;28;20374;-69
2022/07/24 00:28:16;;;;;;;4.32;2.20;;;15.30;99.90;;;;;;5015098;28;20068;-69
2022/07/24 00:30:41;;;;;;;3.92;2.53;;;15.20;99.90;;;;;;5015501;28;20045;-69
2022/07/24 00:33:07;;;;;;;4.28;2.08;;;15.20;99.90;;;;;;5015084;28;20068;-69
2022/07/24 00:35:33;;;;;;;7.97;2.20;;;15.20;99.90;;;;;;5015335;28;20049;-69
2022/07/24 00:37:58;;;;;;;4.63;2.08;;;15.30;99.90;;;;;;5014998;28;20049;-69
2022/07/24 00:40:24;;;;;;;4.22;2.33;;;15.20;99.90;;;;;;5015179;28;20045;-70
2022/07/24 00:42:51;;;;;;;5.22;2.28;;;15.30;99.90;;;;;;5015067;28;20084;-69
2022/07/24 00:45:16;;;;;;;4.13;2.30;;;15.30;99.90;;;;;;5014896;28;20477;-69
2022/07/24 00:47:42;;;;;;;4.00;2.30;;;15.30;99.90;;;;;;5015664;28;20133;-69
2022/07/24 00:50:08;;;;;;;3.65;2.25;;;15.30;99.90;;;;;;5015548;28;20070;-69
2022/07/24 00:52:34;;;;;;;5.30;2.35;;;15.30;99.90;;;;;;5015120;28;20089;-69
2022/07/24 00:55:00;;;;;;;2.83;2.00;;;15.20;99.90;;;;;;5014954;28;20092;-70
2022/07/24 00:57:25;;;;;;;2.65;1.75;;;15.30;99.90;;;;;;5014966;28;20054;-69
2022/07/24 00:59:51;;;;;;;4.30;2.13;;;15.30;99.90;;;;;;5015205;28;20073;-69
2022/07/24 01:02:16;;;;;;;2.53;1.73;;;15.30;99.90;;;;;;5015206;28;20042;-69
2022/07/24 01:04:42;;;;;;;3.42;2.00;;;15.30;99.90;;;;;;5014206;28;20415;-69
2022/07/24 01:07:08;;;;;;;3.88;2.00;;;15.30;99.90;;;;;;5014945;28;20042;-69
2022/07/24 01:09:34;;;;;;;4.38;2.20;;;15.20;99.90;;;;;;5014766;28;20398;-69
2022/07/24 01:12:02;;;;;;;4.07;2.47;;;15.20;99.90;;;;;;5014710;28;20121;-70
2022/07/24 01:14:27;;;;;;;4.55;2.35;;;15.30;99.90;;;;;;5015094;28;20046;-69
2022/07/24 01:16:53;;;;;;;4.57;2.30;;;15.20;99.90;;;;;;5015191;28;20135;-69
2022/07/24 01:19:19;;;;;;;5.65;2.42;;;15.20;99.90;;;;;;5015059;28;20042;-69
2022/07/24 01:21:49;;;;;;;3.60;2.17;;;15.10;99.90;;;;;;5015332;28;20065;-69
2022/07/24 01:24:15;;;;;;;2.97;2.00;;;15.10;99.90;;;;;;5014757;28;20042;-69
2022/07/24 01:26:41;;;;;;;4.93;2.40;;;15.10;99.90;;;;;;5014695;28;20444;-69
2022/07/24 01:29:07;;;;;;;3.03;2.08;;;15.10;99.90;;;;;;5014708;28;20062;-69
2022/07/24 01:31:32;;;;;;;4.40;1.80;;;15.10;99.90;;;;;;5014412;28;20042;-69
2022/07/24 01:33:58;;;;;;;4.20;2.45;;;15.00;99.90;;;;;;5015201;28;20108;-69
2022/07/24 01:36:24;;;;;;;5.35;2.78;;;15.00;99.90;;;;;;5014638;28;20434;-69
2022/07/24 01:38:49;;;;;;;3.60;2.20;;;15.00;99.90;;;;;;5014533;28;20052;-69
2022/07/24 01:41:15;;;;;;;3.38;2.25;;;15.00;99.90;;;;;;5014507;28;20057;-69
2022/07/24 01:43:40;;;;;;;3.58;2.25;;;15.00;99.90;;;;;;5014953;28;20089;-69
2022/07/24 01:46:06;;;;;;;6.15;2.25;;;15.00;99.90;;;;;;5014936;28;20104;-69
2022/07/24 01:48:32;;;;;;;5.68;2.13;;;15.00;99.90;;;;;;5017142;28;20034;-69
2022/07/24 01:50:58;;;;;;;3.70;2.20;;;15.00;99.90;;;;;;5017754;28;20165;-69
2022/07/24 01:53:23;;;;;;;4.68;2.10;;;14.90;99.90;;;;;;5018125;28;20137;-69
2022/07/24 01:55:50;;;;;;;3.60;2.20;;;15.00;99.90;;;;;;5017762;28;20054;-70
2022/07/24 01:58:17;;;;;;;4.40;2.47;;;15.00;99.90;;;;;;5018553;28;20095;-69
2022/07/24 02:00:42;;;;;;;5.18;2.08;;;15.00;99.90;;;;;;5017895;28;20042;-69
2022/07/24 02:03:08;;;;;;;3.38;2.30;;;15.00;99.90;;;;;;5017638;28;20052;-69
2022/07/24 02:05:33;;;;;;;3.55;2.13;;;15.00;99.90;;;;;;5017240;28;20058;-69
2022/07/24 02:07:59;;;;;;;5.38;2.58;;;15.00;99.90;;;;;;5017750;28;20050;-69
2022/07/24 02:10:27;;;;;;;3.75;2.05;;;15.00;99.90;;;;;;5018155;28;20089;-69
2022/07/24 02:12:53;;;;;;;5.78;2.25;;;14.90;99.90;;;;;;5018345;28;20371;-69
2022/07/24 02:15:19;;;;;;;7.20;2.80;;;15.00;99.90;;;;;;5017465;28;20033;-69
2022/07/24 02:17:49;;;;;;;5.97;2.60;;;15.00;99.90;;;;;;5016996;28;20041;-68
2022/07/24 02:20:15;;;;;;;3.85;2.20;;;15.00;99.90;;;;;;5017684;28;20052;-69
2022/07/24 02:22:41;;;;;;;5.13;2.72;;;15.00;99.90;;;;;;5017293;28;20174;-69
2022/07/24 02:25:07;;;;;;;6.07;2.70;;;15.10;99.90;;;;;;5017988;28;20050;-69
2022/07/24 02:27:33;;;;;;;4.55;2.53;;;15.00;99.90;;;;;;5017672;28;20141;-69
2022/07/24 02:29:59;;;;;;;4.18;2.08;;;15.10;99.90;;;;;;5017373;28;20137;-69
2022/07/24 02:32:24;;;;;;;4.70;2.08;;;15.10;99.90;;;;;;5017852;28;20419;-69
2022/07/24 02:34:50;;;;;;;8.88;2.47;;;15.10;99.90;;;;;;5017344;28;20129;-69
2022/07/24 02:37:16;;;;;;;5.70;2.58;;;15.10;99.90;;;;;;5016993;28;20121;-69
2022/07/24 02:39:42;;;;;;;7.32;2.58;;;15.10;99.90;;;;;;5016899;28;20041;-69
2022/07/24 02:42:08;;;;;;;4.18;2.38;;;15.10;99.90;;;;;;5017537;28;20041;-70
2022/07/24 02:44:33;;;;;;;4.10;2.50;;;15.10;99.90;;;;;;5017280;28;20049;-69
2022/07/24 02:46:59;;;;;;;3.80;2.58;;;15.10;99.90;;;;;;5017268;28;20044;-69
2022/07/24 02:49:24;;;;;;;6.28;2.75;;;15.10;99.90;;;;;;5017231;28;20049;-69
2022/07/24 02:51:50;;;;;;;4.03;2.45;;;15.10;99.90;;;;;;5016798;28;20046;-69
2022/07/24 02:54:15;;;;;;;4.57;2.53;;;15.10;99.90;;;;;;5016734;28;20049;-69
2022/07/24 02:56:41;;;;;;;6.47;2.60;;;15.10;99.90;;;;;;5016859;28;20077;-69
2022/07/24 02:59:07;;;;;;;4.50;2.60;;;15.10;99.90;;;;;;5016125;28;20042;-69
2022/07/24 03:01:32;;;;;;;5.78;2.88;;;15.10;99.90;;;;;;5017317;28;20526;-69
2022/07/24 03:03:58;;;;;;;8.02;3.15;;;15.10;99.90;;;;;;5016641;28;20042;-69
2022/07/24 03:06:23;;;;;;;5.55;3.05;;;15.10;99.90;;;;;;5017200;28;20045;-69
2022/07/24 03:08:49;;;;;;;5.55;3.22;;;15.10;99.90;;;;;;5016311;28;20052;-69
2022/07/24 03:11:14;;;;;;;4.95;3.00;;;15.10;99.90;;;;;;5016920;28;20046;-70
2022/07/24 03:13:40;;;;;;;5.50;2.80;;;15.10;99.90;;;;;;5016557;28;20535;-69
2022/07/24 03:16:06;;;;;;;4.57;3.00;;;15.10;99.90;;;;;;5016459;28;20045;-69
2022/07/24 03:18:31;;;;;;;6.57;3.00;;;15.10;99.90;;;;;;5016978;28;20485;-69
2022/07/24 03:20:57;;;;;;;5.57;2.95;;;15.10;99.90;;;;;;5016469;28;20076;-69
2022/07/24 03:23:23;;;;;;;5.13;3.10;;;15.10;99.90;;;;;;5016278;28;20432;-69
2022/07/24 03:25:48;;;;;;;6.45;3.15;;;15.10;99.90;;;;;;5016315;28;20103;-69
2022/07/24 03:28:15;;;;;;;5.30;3.30;;;15.10;99.90;;;;;;5016375;28;20054;-69
2022/07/24 03:30:40;;;;;;;5.50;3.83;;;15.10;99.90;;;;;;5016262;28;20521;-69
2022/07/24 03:33:06;;;;;;;4.00;2.88;;;15.10;99.90;;;;;;5016157;28;20042;-69
2022/07/24 03:35:31;;;;;;;4.47;2.83;;;15.20;99.90;;;;;;5016016;28;20076;-69
2022/07/24 03:37:57;;;;;;;4.32;2.85;;;15.10;99.90;;;;;;5015154;28;20053;-70
2022/07/24 03:40:23;;;;;;;4.15;2.95;;;15.10;99.90;;;;;;5016676;28;20046;-69
2022/07/24 03:42:49;;;;;;;7.30;3.35;;;15.20;99.90;;;;;;5015936;28;20038;-69
2022/07/24 03:45:14;;;;;;;5.95;3.15;;;15.20;99.90;;;;;;5016029;28;20042;-69
2022/07/24 03:47:40;;;;;;;5.15;3.40;;;15.20;99.90;;;;;;5015853;28;20443;-70
2022/07/24 03:50:06;;;;;;;5.47;3.38;;;15.20;99.90;;;;;;5015636;28;20045;-69
2022/07/24 03:52:32;;;;;;;8.13;3.50;;;15.20;99.90;;;;;;5015461;28;20096;-69
2022/07/24 03:54:57;;;;;;;5.95;3.88;;;15.20;99.90;;;;;;5015707;28;20451;-69
2022/07/24 03:57:23;;;;;;;5.57;3.47;;;15.30;99.90;;;;;;5016090;28;20128;-69
2022/07/24 03:59:49;;;;;;;7.05;3.25;;;15.30;99.90;;;;;;5015652;28;20116;-69
2022/07/24 04:02:14;;;;;;;4.93;3.47;;;15.30;99.90;;;;;;5015610;28;20046;-69
2022/07/24 04:04:40;;;;;;;4.75;3.00;;;15.40;99.90;;;;;;5015340;28;20375;-69
2022/07/24 04:07:06;;;;;;;6.55;3.50;;;15.40;99.90;;;;;;5015371;28;20513;-69
2022/07/24 04:09:31;;;;;;;6.28;3.67;;;15.40;99.90;;;;;;5015673;28;20038;-69
2022/07/24 04:11:57;;;;;;;4.18;2.50;;;15.50;99.90;;;;;;5015934;28;20042;-69
2022/07/24 04:14:22;;;;;;;5.20;3.35;;;15.50;99.90;;;;;;5015767;28;20082;-68
2022/07/24 04:16:48;;;;;;;4.45;3.05;;;15.60;99.90;;;;;;5015613;28;20347;-69
2022/07/24 04:19:14;;;;;;;5.30;3.28;;;15.50;99.90;;;;;;5015438;28;20054;-69
2022/07/24 04:21:40;;;;;;;5.80;3.45;;;15.60;99.90;;;;;;5015189;28;20081;-69
2022/07/24 04:24:06;;;;;;;6.40;3.58;;;15.60;99.90;;;;;;5015769;28;20112;-69
2022/07/24 04:26:32;;;;;;;5.75;3.42;;;15.60;99.90;;;;;;5015105;28;20065;-69
2022/07/24 04:28:58;;;;;;;5.18;3.58;;;15.60;99.90;;;;;;5015691;28;20057;-69
2022/07/24 04:31:23;;;;;;;4.07;2.90;;;15.60;99.90;;;;;;5015122;28;20053;-69
2022/07/24 04:33:49;;;;;;;4.57;2.95;;;15.70;99.90;;;;;;5015497;28;20068;-69
2022/07/24 04:36:14;;;;;;;5.40;3.13;;;15.70;99.90;;;;;;5015136;28;20514;-69
2022/07/24 04:38:40;;;;;;;5.22;3.30;;;15.70;99.90;;;;;;5014903;28;20151;-69
2022/07/24 04:41:06;;;;;;;5.70;3.00;;;15.70;99.90;;;;;;5015024;28;20042;-69
2022/07/24 04:43:31;;;;;;;4.30;3.00;;;15.70;99.90;;;;;;5015328;28;20041;-69
2022/07/24 04:45:57;;;;;;;6.03;2.80;;;15.80;99.90;;;;;;5015097;28;20084;-69
2022/07/24 04:48:24;;;;;;;9.82;3.30;;;15.80;99.90;;;;;;5014801;28;20056;-69
2022/07/24 04:50:50;;;;;;;6.28;3.00;;;15.80;99.90;;;;;;5014723;28;20055;-69
2022/07/24 04:53:16;;;;;;;4.63;3.25;;;15.90;99.90;;;;;;5014686;28;20056;-69
2022/07/24 04:55:41;;;;;;;5.13;3.63;;;16.00;99.90;;;;;;5015387;28;20104;-69
2022/07/24 04:58:07;;;;;;;7.18;3.90;;;16.00;99.90;;;;;;5014851;28;20518;-69
2022/07/24 05:00:33;;;;;;;5.20;3.35;;;16.10;99.90;;;;;;5015066;28;20057;-70
2022/07/24 05:02:58;;;;;;;5.75;3.38;;;16.30;99.90;;;;;;5014831;28;20185;-69
2022/07/24 05:05:24;;;;;;;7.50;2.90;;;16.30;99.90;;;;;;5014709;28;20506;-69
2022/07/24 05:07:49;;;;;;;5.90;3.40;;;16.40;99.90;;;;;;5015356;28;20053;-69
2022/07/24 05:10:15;;;;;;;6.85;3.55;;;16.50;99.90;;;;;;5015113;28;20117;-69
2022/07/24 05:12:40;;;;;;;6.10;2.78;;;16.60;99.90;;;;;;5015015;28;20041;-69
2022/07/24 05:15:07;;;;;;;5.88;3.30;;;16.70;99.90;;;;;;5014592;28;20125;-69
2022/07/24 05:17:35;;;;;;;5.45;3.20;;;16.70;99.90;;;;;;5015292;28;20046;-69
2022/07/24 05:20:00;;;;;;;6.57;3.40;;;16.80;99.90;;;;;;5014562;28;20470;-69
2022/07/24 05:22:26;;;;;;;9.70;3.17;;;16.90;99.90;;;;;;5016238;28;20046;-69
2022/07/24 05:24:51;;;;;;;5.15;3.10;;;17.10;99.90;;;;;;5018582;28;20433;-69
2022/07/24 05:27:17;;;;;;;5.53;3.15;;;17.90;99.90;;;;;;5017514;28;20104;-69
2022/07/24 05:29:43;;;;;;;5.72;3.30;;;18.50;99.90;;;;;;5018571;28;20367;-69
2022/07/24 05:32:08;;;;;;;4.18;2.88;;;19.30;99.90;;;;;;5018353;28;20049;-69
2022/07/24 05:34:34;;;;;;;7.78;2.75;;;20.20;99.90;;;;;;5018153;28;20050;-70
2022/07/24 05:37:00;;;;;;;4.53;2.88;;;21.50;99.90;;;;;;5018612;28;20046;-70
2022/07/24 05:39:25;;;;;;;4.30;2.55;;;22.50;99.90;;;;;;5018490;28;20131;-70
2022/07/24 05:41:51;;;;;;;5.82;2.53;;;23.50;99.90;;;;;;5001673;28;20061;-70
2022/07/24 05:44:16;;;;;;;6.25;2.63;;;24.30;99.90;;;;;;5018706;28;20042;-70
2022/07/24 05:46:42;;;;;;;4.13;2.38;;;24.90;99.90;;;;;;5018131;28;20537;-70
2022/07/24 05:49:07;;;;;;;4.70;3.17;;;25.40;99.90;;;;;;5018594;28;20131;-70
2022/07/24 05:51:33;;;;;;;4.90;2.70;;;25.50;99.90;;;;;;5017681;28;20045;-70
2022/07/24 05:53:58;;;;;;;5.13;2.58;;;25.30;99.60;;;;;;5017790;28;20121;-70
2022/07/24 05:56:24;;;;;;;3.63;2.40;;;24.50;98.40;;;;;;5018128;28;20053;-70
2022/07/24 05:58:50;;;;;;;4.90;2.38;;;23.90;99.90;;;;;;5017898;28;20049;-70
2022/07/24 06:01:15;;;;;;;6.20;2.25;;;23.20;99.90;;;;;;5018068;28;20125;-70
2022/07/24 06:03:41;;;;;;;9.82;3.05;;;22.80;99.90;;;;;;5017556;28;20046;-70
2022/07/24 06:06:06;;;;;;;3.83;2.55;;;22.50;99.90;;;;;;5017439;28;20048;-70
2022/07/24 06:08:32;;;;;;;3.88;2.78;;;22.60;99.90;;;;;;5018152;28;20061;-70
2022/07/24 06:10:58;;;;;;;5.20;3.03;;;23.70;99.90;;;;;;5017972;28;20462;-70
2022/07/24 06:13:23;;;;;;;5.55;2.55;;;24.70;99.90;;;;;;5017892;28;20049;-69
2022/07/24 06:15:49;;;;;;;4.10;2.63;;;25.80;99.90;;;;;;5000644;28;20050;-70
2022/07/24 06:18:14;;;;;;;4.25;2.53;;;26.50;99.30;;;;;;5017566;28;20041;-70
2022/07/24 06:20:40;;;;;;;6.80;2.92;;;27.10;98.30;;;;;;5017960;28;20060;-71
2022/07/24 06:23:06;;;;;;;5.47;2.75;;;28.00;97.90;;;;;;5017918;28;20462;-71
2022/07/24 06:25:31;;;;;;;6.43;2.80;;;29.00;97.50;;;;;;5017849;28;20137;-71
2022/07/24 06:27:57;;;;;;;5.03;2.97;;;29.70;96.90;;;;;;5017591;28;20431;-70
2022/07/24 06:30:25;;;;;;;5.80;3.17;;;29.90;95.60;;;;;;5017556;28;20510;-70
2022/07/24 06:32:55;;;;;;;4.68;2.80;;;29.70;93.60;;;;;;5016883;28;20042;-71
2022/07/24 06:35:21;;;;;;;5.00;3.20;;;28.70;94.40;;;;;;5017202;28;20090;-70
2022/07/24 06:37:47;;;;;;;5.93;3.60;;;28.90;95.20;;;;;;5017172;28;20514;-71
2022/07/24 06:40:13;;;;;;;10.45;3.70;;;29.50;94.60;;;;;;5017797;28;20116;-70
2022/07/24 06:42:39;;;;;;;5.75;3.25;;;29.40;93.70;;;;;;5017114;28;20046;-70
2022/07/24 06:45:05;;;;;;;7.75;3.45;;;29.50;94.50;;;;;;5016968;28;20046;-71
2022/07/24 06:47:31;;;;;;;6.88;3.78;;;29.60;94.10;;;;;;5017026;28;20046;-70
2022/07/24 06:49:57;;;;;;;6.28;3.40;;;29.10;93.90;;;;;;5016896;28;20477;-70
2022/07/24 06:52:22;;;;;;;6.20;3.50;;;29.10;94.90;;;;;;5016817;28;20038;-70
2022/07/24 06:54:48;;;;;;;6.72;3.80;;;29.60;94.70;;;;;;5017107;28;20042;-70
2022/07/24 06:57:13;;;;;;;6.20;3.35;;;30.00;93.20;;;;;;5016457;28;20074;-70
2022/07/24 06:59:40;;;;;;;9.27;3.80;;;30.10;94.10;;;;;;5016878;28;20042;-70
2022/07/24 07:02:06;;;;;;;7.82;3.60;;;30.30;93.30;;;;;;5016785;28;20041;-70
2022/07/24 07:04:31;;;;;;;8.05;4.22;;;30.20;93.60;;;;;;5016030;28;20474;-70
2022/07/24 07:06:57;;;;;;;7.05;3.83;;;30.30;93.60;;;;;;5016855;28;20125;-70
2022/07/24 07:09:23;;;;;;;6.07;3.92;;;31.00;93.50;;;;;;5000144;28;20052;-71
2022/07/24 07:11:48;;;;;;;7.80;3.72;;;31.40;93.30;;;;;;5016570;28;20200;-71
2022/07/24 07:14:14;;;;;;;7.95;3.85;;;31.50;93.00;;;;;;5017060;28;20042;-71
2022/07/24 07:16:39;;;;;;;13.10;4.35;;;31.50;93.00;;;;;;5016445;28;20446;-71
2022/07/24 07:19:05;;;;;;;5.68;4.03;;;31.60;92.20;;;;;;5016371;28;20077;-71
2022/07/24 07:21:31;;;;;;;5.60;3.65;;;31.50;92.60;;;;;;5017007;28;20042;-71
2022/07/24 07:23:56;;;;;;;7.15;3.88;;;31.60;92.50;;;;;;5016916;28;20041;-71
2022/07/24 07:26:22;;;;;;;6.35;4.10;;;31.30;91.70;;;;;;5016257;28;20053;-71
2022/07/24 07:28:48;;;;;;;7.85;4.13;;;31.50;91.90;;;;;;5016587;28;20072;-71
2022/07/24 07:31:13;;;;;;;7.65;3.70;;;31.50;92.20;;;;;;5016167;28;20084;-71
2022/07/24 07:33:39;;;;;;;7.78;4.70;;;32.10;92.20;;;;;;5016094;28;20481;-70
2022/07/24 07:36:05;;;;;;;8.15;4.53;;;31.70;91.60;;;;;;5016112;28;20085;-71
2022/07/24 07:38:30;;;;;;;8.07;3.95;;;32.10;91.00;;;;;;5016283;28;20181;-71
2022/07/24 07:40:56;;;;;;;9.27;4.95;;;32.50;92.00;;;;;;5015970;28;20160;-71
2022/07/24 07:43:22;;;;;;;6.35;3.67;;;32.70;90.30;;;;;;5016053;28;20046;-71
2022/07/24 07:45:47;;;;;;;8.15;4.10;;;33.40;92.00;;;;;;5015469;28;20050;-71
2022/07/24 07:48:13;;;;;;;8.73;4.55;;;34.10;91.60;;;;;;5015888;28;20049;-71
2022/07/24 07:50:38;;;;;;;6.90;4.10;;;33.60;90.40;;;;;;5016222;28;20052;-71
2022/07/24 07:53:04;;;;;;;7.82;4.05;;;32.40;90.90;;;;;;5015773;28;20451;-71
2022/07/24 07:55:29;;;;;;;8.70;3.97;;;31.30;90.70;;;;;;4998543;28;20045;-71
2022/07/24 07:57:55;;;;;;;7.53;3.72;;;30.50;91.70;;;;;;5015877;28;20104;-71
2022/07/24 08:00:21;;;;;;;11.82;4.25;;;30.00;92.10;;;;;;5015766;28;20042;-71
2022/07/24 08:02:46;;;;;;;5.47;2.65;;;29.40;92.00;;;;;;5015964;28;20053;-71
2022/07/24 08:05:12;;;;;;;4.82;2.83;;;29.10;92.40;;;;;;5015574;28;20475;-71
2022/07/24 08:07:38;;;;;;;4.97;2.92;;;29.40;93.00;;;;;;5015468;28;20527;-71
2022/07/24 08:10:07;;;;;;;5.35;2.50;;;30.10;92.80;;;;;;5015567;28;20430;-71
2022/07/24 08:12:33;;;;;;;4.13;2.20;;;31.20;92.10;;;;;;5015385;28;20099;-70
2022/07/24 08:14:58;;;;;;;5.50;2.25;;;31.90;91.30;;;;;;5015471;28;20042;-71
2022/07/24 08:17:24;;;;;;;4.40;1.73;;;32.50;90.90;;;;;;5015420;28;20046;-70
2022/07/24 08:19:49;;;;;;;4.03;1.80;;;32.50;89.90;;;;;;5015675;28;20037;-71
2022/07/24 08:22:15;;;;;;;5.88;1.98;;;32.50;87.60;;;;;;5015727;28;20107;-71
2022/07/24 08:24:40;;;;;;;2.90;1.80;;;31.80;90.00;;;;;;5015456;28;20042;-71
2022/07/24 08:27:06;;;;;;;3.10;1.50;;;31.40;90.00;;;;;;5015302;28;20073;-70
2022/07/24 08:29:32;;;;;;;4.00;1.73;;;31.10;90.30;;;;;;5015242;28;20513;-71
2022/07/24 08:31:58;;;;;;;3.33;1.90;;;31.30;90.50;;;;;;5015039;28;20041;-71
2022/07/24 08:34:23;;;;;;;3.35;1.85;;;31.40;90.30;;;;;;5015739;28;20038;-70
2022/07/24 08:36:50;;;;;;;3.35;1.70;;;31.40;90.20;;;;;;5015752;28;20419;-70
2022/07/24 08:39:15;;;;;;;4.18;1.77;;;31.30;90.70;;;;;;5015501;28;20038;-70
2022/07/24 08:41:42;;;;;;;4.63;1.73;;;31.30;90.90;;;;;;5015359;28;20057;-71
2022/07/24 08:44:08;;;;;;;3.30;2.00;;;30.80;90.50;;;;;;5014901;28;20041;-70
2022/07/24 08:46:37;;;;;;;2.92;1.60;;;30.70;89.90;;;;;;5015012;28;20129;-71
2022/07/24 08:49:09;;;;;;;5.22;1.70;;;30.70;90.70;;;;;;5015076;28;20080;-70
2022/07/24 08:51:37;;;;;;;3.67;1.63;;;30.80;90.80;;;;;;5015686;28;20355;-71
2022/07/24 08:54:03;;;;;;;3.88;1.80;;;30.70;90.50;;;;;;5015057;28;20042;-71
2022/07/24 08:56:29;;;;;;;3.17;1.65;;;30.40;90.90;;;;;;4999257;28;20344;-71
2022/07/24 08:58:55;;;;;;;4.50;1.67;;;30.10;90.80;;;;;;5019113;28;20045;-71
2022/07/24 09:01:21;;;;;;;2.90;1.90;;;29.90;91.00;;;;;;5018993;28;20049;-71
2022/07/24 09:03:47;;;;;;;3.95;1.55;;;30.00;91.30;;;;;;5019347;28;20046;-71
2022/07/24 09:06:14;;;;;;;4.03;1.88;;;30.00;91.70;;;;;;5018953;28;20038;-70
2022/07/24 09:08:41;;;;;;;3.25;1.45;;;29.70;91.50;;;;;;5018876;28;20129;-71
2022/07/24 09:11:09;;;;;;;3.08;1.52;;;30.10;91.40;;;;;;5018976;28;20049;-71
2022/07/24 09:16:24;;;;;;;2.55;1.73;;;31.00;91.30;;;;;;5018445;28;20482;-70
2022/07/24 09:19:02;;;;;;;3.22;1.80;;;30.50;91.00;;;;;;5018518;28;20506;-70
2022/07/24 09:21:32;;;;;;;4.32;1.90;;;30.30;91.00;;;;;;5018774;28;20038;-70
2022/07/24 09:24:02;;;;;;;4.50;1.67;;;30.10;90.60;;;;;;5018690;28;20093;-70
2022/07/24 09:26:53;;;;;;;3.88;1.98;;;30.10;90.50;;;;;;5018421;28;20060;-71
2022/07/24 09:29:20;;;;;;;5.78;1.92;;;29.70;90.30;;;;;;5018277;28;20050;-70
2022/07/24 09:31:55;;;;;;;4.13;1.45;;;29.50;91.20;;;;;;5018647;28;20378;-70
2022/07/24 09:34:22;;;;;;;4.82;1.85;;;29.30;91.60;;;;;;5018503;28;20100;-70
2022/07/24 09:37:05;;;;;;;5.65;1.75;;;29.30;91.90;;;;;;5018380;28;20125;-70
2022/07/24 09:39:33;;;;;;;3.00;1.73;;;29.50;92.50;;;;;;5018237;28;20183;-70
2022/07/24 09:42:00;;;;;;;3.50;1.70;;;29.70;91.50;;;;;;5018466;28;20041;-70
2022/07/24 09:44:26;;;;;;;3.28;1.67;;;29.90;91.60;;;;;;5000965;28;20526;-71
2022/07/24 09:47:04;;;;;;;3.17;1.30;;;30.30;91.50;;;;;;5017987;28;20196;-70
2022/07/24 09:49:31;;;;;;;5.03;1.73;;;30.70;91.50;;;;;;5000899;28;20046;-70
2022/07/24 09:52:11;;;;;;;3.00;1.40;;;30.90;91.00;;;;;;5018090;28;20071;-70
2022/07/24 09:54:41;;;;;;;8.27;2.10;;;31.00;91.00;;;;;;5018032;28;20132;-71
2022/07/24 09:57:25;;;;;;;3.72;1.80;;;30.90;90.70;;;;;;5001075;28;20088;-71
2022/07/24 09:59:52;;;;;;;3.38;1.50;;;31.10;91.20;;;;;;5017650;28;20049;-71
2022/07/24 10:02:21;;;;;;;5.05;1.70;;;31.10;91.30;;;;;;5018158;28;20049;-70
2022/07/24 10:04:48;;;;;;;4.10;1.85;;;30.90;91.00;;;;;;5017945;28;20057;-71
2022/07/24 10:07:16;;;;;;;3.47;1.70;;;30.70;91.20;;;;;;5018374;28;20100;-70
2022/07/24 10:09:44;;;;;;;3.13;1.45;;;30.50;91.30;;;;;;5017229;28;20481;-70
2022/07/24 10:12:16;;;;;;;3.72;1.83;;;30.20;90.70;;;;;;5017594;28;20371;-71
2022/07/24 10:14:43;;;;;;;3.80;1.73;;;30.10;91.30;;;;;;5017789;28;20042;-70
2022/07/24 10:17:11;;;;;;;4.57;1.60;;;30.00;91.60;;;;;;5017516;28;20467;-70
2022/07/24 10:19:47;;;;;;;2.88;1.60;;;29.90;91.30;;;;;;5018203;28;20350;-70
2022/07/24 10:22:23;;;;;;;3.70;1.58;;;29.80;91.40;;;;;;5017668;28;20053;-70
2022/07/24 10:25:05;;;;;;;4.78;1.65;;;29.70;91.50;;;;;;5017440;28;20116;-70
2022/07/24 10:27:36;;;;;;;5.00;1.83;;;29.80;92.00;;;;;;5017677;28;20374;-70
2022/07/24 10:30:07;;;;;;;4.18;1.50;;;29.90;91.80;;;;;;5017447;28;20490;-70
2022/07/24 10:32:34;;;;;;;3.50;1.77;;;29.90;91.30;;;;;;5017208;28;20042;-70
2022/07/24 10:35:29;;;;;;;2.55;1.60;;;29.90;91.60;;;;;;5017286;28;20053;-70
2022/07/24 10:38:10;;;;;;;26.75;1.88;;;29.70;91.10;;;;;;5017610;28;20443;-70
2022/07/24 10:40:45;;;;;;;3.20;1.60;;;29.70;91.40;;;;;;5016871;28;20490;-70
2022/07/24 10:43:16;;;;;;;3.58;1.30;;;29.70;91.80;;;;;;5017195;28;20057;-70
2022/07/24 10:45:46;;;;;;;6.95;1.85;;;29.70;91.30;;;;;;5017557;28;20085;-70
2022/07/24 10:48:21;;;;;;;3.22;1.90;;;29.90;91.70;;;;;;5017090;28;20038;-70
2022/07/24 10:51:07;;;;;;;2.75;1.70;;;30.10;91.30;;;;;;5017378;28;20495;-70
2022/07/24 10:53:39;;;;;;;7.65;1.83;;;29.80;90.80;;;;;;5016891;28;20046;-69
2022/07/24 10:56:30;;;;;;;4.32;1.35;;;30.00;91.30;;;;;;5016863;28;20045;-70
2022/07/24 10:58:59;;;;;;;3.75;1.70;;;29.90;91.00;;;;;;5016846;28;20049;-70
2022/07/24 11:01:31;;;;;;;2.42;1.20;;;29.90;91.50;;;;;;5017064;28;20081;-70
2022/07/24 11:03:58;;;;;;;3.78;1.50;;;30.00;91.80;;;;;;5017144;28;20056;-70
2022/07/24 11:07:09;;;;;;;4.53;1.85;;;30.10;91.40;;;;;;5016703;28;20046;-70
2022/07/24 11:09:55;;;;;;;5.88;1.70;;;29.90;91.20;;;;;;4989242;28;20058;-70
2022/07/24 11:12:32;;;;;;;2.28;1.38;;;30.00;91.40;;;;;;5016530;28;20085;-70
2022/07/24 11:17:47;;;;;;;3.50;1.77;;;30.00;90.90;;;;;;5016470;28;20053;-70
2022/07/24 11:20:14;;;;;;;4.53;1.45;;;30.00;90.90;;;;;;4998612;28;20439;-70
2022/07/24 11:22:50;;;;;;;2.17;1.35;;;30.30;91.30;;;;;;5016636;28;20045;-71
2022/07/24 11:25:21;;;;;;;3.00;1.85;;;30.40;91.40;;;;;;5016796;28;20042;-70
2022/07/24 11:27:50;;;;;;;2.67;1.30;;;30.40;90.80;;;;;;5016089;28;20085;-71
2022/07/24 11:30:18;;;;;;;3.40;1.60;;;30.60;91.40;;;;;;5016678;28;20133;-70
2022/07/24 11:32:44;;;;;;;2.22;1.30;;;30.60;90.90;;;;;;4999028;28;20432;-70
2022/07/24 11:35:10;;;;;;;7.47;1.80;;;30.50;90.80;;;;;;5016280;28;20147;-70
2022/07/24 11:37:37;;;;;;;3.58;1.40;;;30.20;90.70;;;;;;5016114;28;20041;-70
2022/07/24 11:40:08;;;;;;;2.70;1.40;;;30.40;91.20;;;;;;5016441;28;20068;-70
2022/07/24 11:42:35;;;;;;;3.47;1.17;;;30.60;91.20;;;;;;5016022;28;20181;-70
2022/07/24 11:45:02;;;;;;;4.03;1.70;;;30.70;91.00;;;;;;5016127;28;20366;-69
2022/07/24 11:47:28;;;;;;;2.83;1.50;;;30.80;90.90;;;;;;5016357;28;20046;-70
2022/07/24 11:50:04;;;;;;;4.15;1.70;;;30.80;90.80;;;;;;4998870;28;20386;-71
2022/07/24 11:52:34;;;;;;;5.38;1.90;;;30.60;90.00;;;;;;5016143;28;20085;-70
2022/07/24 11:55:04;;;;;;;4.20;1.55;;;30.60;90.80;;;;;;5015815;28;20045;-70
2022/07/24 11:57:32;;;;;;;3.47;1.35;;;30.70;90.60;;;;;;5015668;28;20054;-70
2022/07/24 11:59:58;;;;;;;3.58;1.70;;;30.90;90.80;;;;;;5015728;28;20050;-70
2022/07/24 12:02:25;;;;;;;3.10;1.40;;;30.80;90.40;;;;;;5015668;28;20052;-70
2022/07/24 12:04:52;;;;;;;4.45;1.55;;;30.70;90.40;;;;;;5015593;28;20383;-70
2022/07/24 12:07:25;;;;;;;3.65;1.90;;;30.70;90.50;;;;;;5015655;28;20046;-70
2022/07/24 12:09:58;;;;;;;3.30;1.85;;;30.80;90.50;;;;;;5015587;28;20041;-70
2022/07/24 12:12:36;;;;;;;2.92;1.20;;;30.90;90.50;;;;;;5015513;28;20076;-70
2022/07/24 12:15:08;;;;;;;6.03;1.75;;;30.80;89.70;;;;;;5016057;28;20107;-71
2022/07/24 12:17:34;;;;;;;;;;;30.80;90.10;;;;;;5015678;28;20045;-70
2022/07/24 12:20:06;;;;;;;3.10;1.40;;;30.90;89.80;;;;;;5015226;28;20342;-70
2022/07/24 12:22:32;;;;;;;4.38;1.58;;;30.70;89.20;;;;;;5015482;28;20430;-71
2022/07/24 12:24:58;;;;;;;3.25;1.67;;;30.70;90.00;;;;;;5015347;28;20073;-70
2022/07/24 12:27:40;;;;;;;2.53;1.55;;;30.70;90.00;;;;;;5015341;28;20148;-70
2022/07/24 12:30:35;;;;;;;3.72;1.40;;;30.60;90.00;;;;;;5015496;28;20439;-70
2022/07/24 12:33:18;;;;;;;4.28;1.38;;;30.60;89.80;;;;;;5015730;28;20342;-70
2022/07/24 12:35:56;;;;;;;3.15;1.45;;;30.70;90.10;;;;;;5015238;28;20471;-69
2022/07/24 12:38:31;;;;;;;3.65;1.42;;;30.80;90.00;;;;;;5015100;28;20046;-70
2022/07/24 12:41:04;;;;;;;4.30;1.40;;;30.70;90.00;;;;;;5015369;28;20068;-70
2022/07/24 12:43:30;;;;;;;2.80;1.50;;;30.40;88.50;;;;;;5015263;28;20111;-70
2022/07/24 12:46:09;;;;;;;2.30;1.23;;;30.50;90.00;;;;;;5015362;28;20046;-70
2022/07/24 12:48:34;;;;;;;5.53;1.50;;;30.60;90.30;;;;;;5014892;28;20126;-70
2022/07/24 12:51:18;;;;;;;2.67;1.35;;;30.70;90.30;;;;;;5015828;28;20069;-70
2022/07/24 12:53:43;;;;;;;4.47;1.42;;;30.90;89.50;;;;;;5014838;28;20497;-71
2022/07/24 12:56:15;;;;;;;5.97;1.80;;;31.10;90.30;;;;;;5015412;28;20041;-70